createdAt,value
2023-08-03T00:01:30.697Z,75.10
2023-08-03T00:04:02.356Z,74.90
2023-08-03T00:06:31.808Z,74.90
2023-08-03T00:09:01.202Z,75.00
2023-08-03T00:11:31.806Z,75.30
2023-08-03T00:14:19.763Z,75.70
2023-08-03T00:16:48.995Z,75.70
2023-08-03T00:19:18.325Z,75.80
2023-08-03T00:21:47.428Z,75.90
2023-08-03T00:24:16.590Z,76.10
2023-08-03T00:26:48.401Z,76.50
2023-08-03T00:29:17.523Z,76.70
2023-08-03T00:31:47.043Z,76.80
2023-08-03T00:34:17.940Z,77.00
2023-08-03T00:36:47.445Z,76.90
2023-08-03T00:39:16.557Z,77.10
2023-08-03T00:41:47.180Z,76.90
2023-08-03T00:44:16.235Z,76.90
2023-08-03T00:46:45.730Z,77.10
2023-08-03T00:49:15.065Z,77.20
2023-08-03T00:51:44.633Z,77.40
2023-08-03T00:54:14.257Z,77.60
2023-08-03T00:56:44.286Z,77.90
2023-08-03T00:59:14.907Z,78.50
2023-08-03T01:01:45.405Z,78.80
2023-08-03T01:04:16.525Z,79.10
2023-08-03T01:06:45.909Z,79.40
2023-08-03T01:09:16.098Z,79.50
2023-08-03T01:11:45.785Z,79.50
2023-08-03T01:14:16.953Z,79.70
2023-08-03T01:16:47.654Z,79.80
2023-08-03T01:19:18.373Z,80.10
2023-08-03T01:21:49.472Z,80.20
2023-08-03T01:24:20.691Z,80.20
2023-08-03T01:26:49.980Z,80.40
2023-08-03T01:29:19.633Z,80.40
2023-08-03T01:31:49.494Z,80.40
2023-08-03T01:34:19.015Z,80.60
2023-08-03T01:36:48.577Z,80.70
2023-08-03T01:39:17.854Z,80.80
2023-08-03T01:41:48.455Z,80.80
2023-08-03T01:44:29.215Z,80.90
2023-08-03T01:47:01.015Z,80.80
2023-08-03T01:49:38.261Z,80.90
2023-08-03T01:52:08.996Z,81.10
2023-08-03T01:54:38.196Z,81.10
2023-08-03T01:57:09.407Z,81.30
2023-08-03T01:59:38.500Z,81.40
2023-08-03T02:02:08.020Z,81.60
2023-08-03T02:04:37.237Z,81.80
2023-08-03T02:07:12.116Z,82.10
2023-08-03T02:09:41.326Z,82.20
2023-08-03T02:12:12.865Z,82.30
2023-08-03T02:14:42.653Z,82.30
2023-08-03T02:17:19.729Z,82.30
2023-08-03T02:19:50.389Z,82.20
2023-08-03T02:22:19.655Z,82.10
2023-08-03T02:24:48.820Z,82.10
2023-08-03T02:27:19.618Z,82.00
2023-08-03T02:29:48.825Z,82.00
2023-08-03T02:32:18.371Z,82.00
2023-08-03T02:34:48.552Z,82.00
2023-08-03T02:37:20.649Z,82.00
2023-08-03T02:39:50.407Z,82.00
2023-08-03T02:42:27.339Z,81.90
2023-08-03T02:44:57.253Z,81.60
2023-08-03T02:47:26.744Z,81.50
2023-08-03T02:50:00.320Z,81.30
2023-08-03T02:52:29.383Z,81.60
2023-08-03T02:55:09.274Z,80.60
2023-08-03T02:57:43.959Z,80.50
2023-08-03T03:00:23.208Z,80.30
2023-08-03T03:02:53.113Z,80.40
2023-08-03T03:05:36.845Z,80.30
2023-08-03T03:08:06.524Z,80.00
2023-08-03T03:10:36.551Z,80.00
2023-08-03T03:13:07.610Z,80.10
2023-08-03T03:15:36.873Z,80.20
2023-08-03T03:18:06.082Z,80.40
2023-08-03T03:20:35.197Z,80.60
2023-08-03T03:23:04.312Z,80.60
2023-08-03T03:25:33.349Z,80.70
2023-08-03T03:28:06.507Z,80.80
2023-08-03T03:30:42.050Z,81.00
2023-08-03T03:33:11.277Z,81.30
2023-08-03T03:35:45.213Z,81.60
2023-08-03T03:38:18.635Z,81.90
2023-08-03T03:40:49.138Z,82.30
2023-08-03T03:43:19.420Z,82.70
2023-08-03T03:45:59.486Z,83.00
2023-08-03T03:48:31.364Z,83.30
2023-08-03T03:51:04.369Z,83.30
2023-08-03T03:53:34.351Z,83.50
2023-08-03T03:56:10.599Z,83.50
2023-08-03T03:58:40.410Z,83.40
2023-08-03T04:01:11.530Z,83.20
2023-08-03T04:03:41.503Z,83.40
2023-08-03T04:06:12.752Z,83.30
2023-08-03T04:08:42.149Z,83.50
2023-08-03T04:11:11.788Z,83.40
2023-08-03T04:13:40.832Z,83.50
2023-08-03T04:16:12.553Z,83.10
2023-08-03T04:19:00.421Z,83.20
2023-08-03T04:21:29.588Z,83.20
2023-08-03T04:24:06.380Z,82.90
2023-08-03T04:26:37.846Z,82.90
2023-08-03T04:29:12.435Z,82.50
2023-08-03T04:31:44.003Z,82.40
2023-08-03T04:34:13.239Z,82.30
2023-08-03T04:36:44.601Z,82.40
2023-08-03T04:39:13.945Z,82.40
2023-08-03T04:41:43.601Z,82.00
2023-08-03T04:44:13.394Z,82.10
2023-08-03T04:46:44.897Z,81.70
2023-08-03T04:49:35.905Z,81.50
2023-08-03T04:52:10.518Z,81.30
2023-08-03T04:54:39.932Z,81.30
2023-08-03T04:57:09.758Z,81.20
2023-08-03T04:59:45.660Z,81.00
2023-08-03T05:02:16.502Z,80.80
2023-08-03T05:04:45.757Z,80.10
2023-08-03T05:07:16.827Z,80.10
2023-08-03T05:09:46.930Z,80.10
2023-08-03T05:12:16.254Z,79.90
2023-08-03T05:14:45.242Z,79.60
2023-08-03T05:17:15.808Z,79.20
2023-08-03T05:19:44.977Z,78.70
2023-08-03T05:22:13.950Z,78.10
2023-08-03T05:24:43.041Z,77.70
2023-08-03T05:27:12.266Z,77.10
2023-08-03T05:29:44.975Z,76.30
2023-08-03T05:32:15.809Z,75.90
2023-08-03T05:35:04.804Z,75.50
2023-08-03T05:37:34.753Z,75.30
2023-08-03T05:40:05.649Z,74.60
2023-08-03T05:42:40.149Z,74.30
2023-08-03T05:45:40.201Z,74.00
2023-08-03T05:48:17.408Z,73.60
2023-08-03T05:50:48.064Z,73.40
2023-08-03T05:53:20.718Z,73.50
2023-08-03T05:56:09.782Z,73.40
2023-08-03T05:58:42.656Z,72.70
2023-08-03T06:01:14.180Z,72.20
2023-08-03T06:03:46.288Z,72.20
2023-08-03T06:06:22.865Z,72.20
2023-08-03T06:08:54.647Z,71.90
2023-08-03T06:13:55.638Z,71.70
2023-08-03T06:16:26.483Z,71.00
2023-08-03T06:19:00.493Z,70.80
2023-08-03T06:21:36.062Z,70.60
2023-08-03T06:24:06.424Z,70.60
2023-08-03T06:27:00.188Z,70.20
2023-08-03T06:29:29.478Z,69.70
2023-08-03T06:31:58.604Z,69.50
2023-08-03T06:34:29.826Z,69.50
2023-08-03T06:36:58.780Z,69.60
2023-08-03T06:39:27.927Z,69.60
2023-08-03T06:41:57.273Z,69.40
2023-08-03T06:44:26.169Z,69.90
2023-08-03T06:46:57.347Z,69.20
2023-08-03T06:49:28.050Z,69.20
2023-08-03T06:51:57.789Z,69.30
2023-08-03T06:54:26.970Z,69.30
2023-08-03T06:56:56.272Z,68.90
2023-08-03T06:59:25.259Z,68.90
2023-08-03T07:01:55.107Z,69.10
2023-08-03T07:04:24.445Z,69.10
2023-08-03T07:06:54.839Z,68.70
2023-08-03T07:09:23.815Z,68.90
2023-08-03T07:11:53.044Z,69.10
2023-08-03T07:14:22.620Z,68.40
2023-08-03T07:16:51.582Z,67.50
2023-08-03T07:19:20.720Z,67.50
2023-08-03T07:21:49.722Z,67.70
2023-08-03T07:24:20.151Z,66.80
2023-08-03T07:26:50.956Z,66.80
2023-08-03T07:29:20.077Z,66.50
2023-08-03T07:31:49.806Z,66.50
2023-08-03T07:34:19.111Z,66.70
2023-08-03T07:36:48.747Z,66.50
2023-08-03T07:39:19.377Z,66.10
2023-08-03T07:41:50.218Z,66.50
2023-08-03T07:44:19.777Z,65.80
2023-08-03T07:46:55.723Z,65.70
2023-08-03T07:49:24.834Z,64.80
2023-08-03T07:51:53.778Z,64.70
2023-08-03T07:54:22.833Z,64.20
2023-08-03T07:56:54.209Z,63.90
2023-08-03T07:59:23.411Z,63.90
2023-08-03T08:01:52.488Z,63.40
2023-08-03T08:04:21.551Z,63.30
2023-08-03T08:06:52.148Z,63.40
2023-08-03T08:09:21.378Z,63.00
2023-08-03T08:11:50.559Z,63.10
2023-08-03T08:14:21.049Z,62.30
2023-08-03T08:16:58.918Z,61.10
2023-08-03T08:19:40.052Z,60.20
2023-08-03T08:22:16.457Z,59.30
2023-08-03T08:24:46.969Z,58.70
2023-08-03T08:27:18.563Z,58.80
2023-08-03T08:29:50.066Z,57.10
2023-08-03T08:32:19.457Z,56.60
2023-08-03T08:34:48.512Z,54.60
2023-08-03T08:37:17.455Z,53.10
2023-08-03T08:40:05.738Z,51.60
2023-08-03T08:42:34.870Z,51.70
2023-08-03T08:45:06.757Z,50.90
2023-08-03T08:47:36.254Z,50.40
2023-08-03T08:55:17.434Z,46.20
2023-08-03T09:00:22.566Z,44.20
2023-08-03T09:02:55.708Z,43.80
2023-08-03T09:08:05.655Z,43.00
2023-08-03T09:10:51.698Z,42.70
2023-08-03T09:13:29.347Z,42.00
2023-08-03T09:16:00.241Z,40.70
2023-08-03T09:18:31.262Z,41.40
2023-08-03T09:29:32.767Z,40.70
2023-08-03T09:32:06.493Z,41.00
2023-08-03T09:37:12.771Z,40.70
2023-08-03T09:40:05.795Z,41.10
2023-08-03T09:42:35.781Z,41.20
2023-08-03T09:45:33.227Z,40.60
2023-08-03T09:47:59.776Z,40.50
2023-08-03T09:50:34.048Z,40.50
2023-08-03T09:55:51.014Z,39.40
2023-08-03T09:58:22.408Z,40.10
2023-08-03T10:00:53.183Z,39.80
2023-08-03T10:03:23.739Z,39.80
2023-08-03T10:05:54.896Z,39.60
2023-08-03T10:08:29.788Z,39.50
2023-08-03T10:11:18.029Z,39.50
2023-08-03T10:13:49.693Z,39.60
2023-08-03T10:16:19.764Z,39.40
2023-08-03T10:18:59.818Z,38.60
2023-08-03T10:21:30.795Z,38.30
2023-08-03T10:24:14.151Z,37.70
2023-08-03T10:26:44.730Z,38.10
2023-08-03T10:29:13.977Z,38.00
2023-08-03T10:31:56.563Z,37.60
2023-08-03T10:34:30.518Z,37.50
2023-08-03T10:37:00.856Z,36.60
2023-08-03T10:39:55.600Z,35.70
2023-08-03T10:42:27.532Z,35.40
2023-08-03T10:44:58.593Z,34.80
2023-08-03T10:47:32.751Z,35.10
2023-08-03T10:50:03.600Z,35.20
2023-08-03T10:52:33.665Z,35.20
2023-08-03T10:55:23.114Z,34.80
2023-08-03T10:57:52.475Z,34.90
2023-08-03T11:00:21.446Z,34.50
2023-08-03T11:02:50.501Z,34.40
2023-08-03T11:05:21.220Z,34.50
2023-08-03T11:07:51.424Z,34.20
2023-08-03T11:10:24.123Z,34.60
2023-08-03T11:12:56.402Z,34.80
2023-08-03T11:15:25.847Z,34.20
2023-08-03T11:17:54.762Z,33.90
2023-08-03T11:20:25.892Z,33.30
2023-08-03T11:22:55.059Z,33.10
2023-08-03T11:25:24.428Z,32.90
2023-08-03T11:27:55.508Z,33.40
2023-08-03T11:30:27.642Z,33.50
2023-08-03T11:33:00.448Z,32.60
2023-08-03T11:35:31.209Z,32.20
2023-08-03T11:38:00.564Z,31.90
2023-08-03T11:40:29.671Z,31.70
2023-08-03T11:43:00.708Z,32.40
2023-08-03T11:45:32.267Z,31.80
2023-08-03T11:48:01.750Z,31.30
2023-08-03T11:50:33.716Z,31.30
2023-08-03T11:53:17.634Z,30.60
2023-08-03T11:55:48.340Z,30.30
2023-08-03T11:58:16.286Z,30.70
2023-08-03T12:00:46.954Z,30.50
2023-08-03T12:03:31.850Z,29.80
2023-08-03T12:06:29.509Z,29.80
2023-08-03T12:08:59.331Z,29.40
2023-08-03T12:11:32.522Z,29.20
2023-08-03T12:14:13.608Z,28.90
2023-08-03T12:16:43.142Z,27.80
2023-08-03T12:19:13.489Z,28.50
2023-08-03T12:21:44.407Z,29.00
2023-08-03T12:24:14.260Z,28.10
2023-08-03T12:26:43.156Z,28.60
2023-08-03T12:29:12.173Z,28.30
2023-08-03T12:31:45.880Z,28.30
2023-08-03T12:34:23.408Z,27.30
2023-08-03T12:37:12.969Z,27.20
2023-08-03T12:39:46.822Z,27.40
2023-08-03T12:42:21.697Z,27.60
2023-08-03T12:44:51.763Z,28.30
2023-08-03T12:47:21.003Z,28.00
2023-08-03T12:49:50.738Z,28.30
2023-08-03T12:52:21.281Z,28.90
2023-08-03T12:54:50.169Z,29.60
2023-08-03T12:57:19.159Z,30.00
2023-08-03T12:59:48.128Z,30.10
2023-08-03T13:02:17.382Z,30.40
2023-08-03T13:04:47.316Z,30.40
2023-08-03T13:07:25.340Z,30.60
2023-08-03T13:09:54.388Z,29.80
2023-08-03T13:12:23.436Z,30.20
2023-08-03T13:14:52.569Z,30.10
2023-08-03T13:17:21.723Z,30.10
2023-08-03T13:19:50.643Z,30.20
2023-08-03T13:22:21.026Z,30.40
2023-08-03T13:24:50.390Z,30.30
2023-08-03T13:27:21.941Z,29.80
2023-08-03T13:29:52.151Z,29.40
2023-08-03T13:32:21.319Z,29.90
2023-08-03T13:34:50.720Z,30.00
2023-08-03T13:37:21.151Z,30.40
2023-08-03T13:39:50.139Z,29.80
2023-08-03T13:42:19.025Z,29.80
2023-08-03T13:44:47.970Z,30.30
2023-08-03T13:47:16.975Z,30.20
2023-08-03T13:49:46.312Z,30.50
2023-08-03T13:52:15.437Z,31.20
2023-08-03T13:54:45.798Z,31.40
2023-08-03T13:57:15.085Z,31.80
2023-08-03T13:59:44.221Z,32.60
2023-08-03T14:02:14.627Z,32.50
2023-08-03T14:04:43.792Z,33.00
2023-08-03T14:07:13.191Z,32.90
2023-08-03T14:09:42.755Z,33.10
2023-08-03T14:12:16.643Z,33.70
2023-08-03T14:14:48.294Z,33.30
2023-08-03T14:17:53.712Z,34.00
2023-08-03T14:22:39.327Z,34.60
2023-08-03T14:27:51.985Z,35.40
2023-08-03T14:30:23.004Z,35.50
2023-08-03T14:32:52.257Z,36.10
2023-08-03T14:37:53.083Z,36.90
2023-08-03T14:40:22.328Z,37.20
2023-08-03T14:42:56.737Z,37.80
2023-08-03T14:45:36.054Z,38.10
2023-08-03T14:48:09.089Z,38.20
2023-08-03T14:50:39.270Z,38.60
2023-08-03T14:53:08.322Z,38.80
2023-08-03T14:56:33.165Z,39.10
2023-08-03T15:01:07.782Z,39.90
2023-08-03T15:03:38.532Z,40.00
2023-08-03T15:06:15.454Z,40.40
2023-08-03T15:08:44.893Z,40.50
2023-08-03T15:11:13.900Z,40.30
2023-08-03T15:13:45.705Z,39.30
2023-08-03T15:16:29.148Z,38.50
2023-08-03T15:18:58.926Z,39.10
2023-08-03T15:21:29.778Z,39.90
2023-08-03T15:24:01.614Z,40.80
2023-08-03T15:26:56.239Z,40.70
2023-08-03T15:29:28.486Z,40.90
2023-08-03T15:32:00.697Z,40.90
2023-08-03T15:34:52.771Z,41.30
2023-08-03T15:37:24.951Z,41.50
2023-08-03T15:39:57.669Z,42.10
2023-08-03T15:42:31.376Z,42.20
2023-08-03T15:45:08.821Z,41.50
2023-08-03T15:48:19.232Z,41.40
2023-08-03T15:50:32.272Z,41.70
2023-08-03T15:53:26.841Z,41.90
2023-08-03T15:58:45.259Z,42.40
2023-08-03T16:01:15.620Z,42.70
2023-08-03T16:03:45.426Z,42.40
2023-08-03T16:06:15.597Z,42.60
2023-08-03T16:08:44.928Z,43.80
2023-08-03T16:11:14.689Z,43.80
2023-08-03T16:13:44.236Z,44.60
2023-08-03T16:16:15.042Z,44.90
2023-08-03T16:18:44.163Z,44.80
2023-08-03T16:21:13.046Z,45.60
2023-08-03T16:23:42.031Z,46.40
2023-08-03T16:26:11.949Z,47.80
2023-08-03T16:28:41.378Z,47.20
2023-08-03T16:31:18.418Z,47.40
2023-08-03T16:33:48.223Z,47.20
2023-08-03T16:36:18.932Z,48.00
2023-08-03T16:38:47.949Z,48.20
2023-08-03T16:41:17.233Z,48.40
2023-08-03T16:43:46.750Z,48.90
2023-08-03T16:46:17.233Z,48.90
2023-08-03T16:49:05.488Z,49.30
2023-08-03T16:51:34.330Z,49.20
2023-08-03T16:54:03.472Z,49.20
2023-08-03T16:56:32.489Z,49.50
2023-08-03T16:59:03.707Z,49.50
2023-08-03T17:01:34.162Z,48.90
2023-08-03T17:04:03.800Z,48.90
2023-08-03T17:06:34.681Z,48.40
2023-08-03T17:09:06.127Z,47.80
2023-08-03T17:11:35.151Z,47.20
2023-08-03T17:14:03.949Z,46.80
2023-08-03T17:16:34.602Z,46.80
2023-08-03T17:19:03.622Z,46.50
2023-08-03T17:21:32.748Z,46.30
2023-08-03T17:24:01.893Z,45.90
2023-08-03T17:26:31.370Z,45.40
2023-08-03T17:29:00.188Z,45.30
2023-08-03T17:31:29.179Z,44.80
2023-08-03T17:33:59.561Z,44.50
2023-08-03T17:36:28.743Z,44.40
2023-08-03T17:38:57.616Z,44.10
2023-08-03T17:41:39.826Z,43.70
2023-08-03T17:44:13.927Z,43.30
2023-08-03T17:46:44.741Z,43.40
2023-08-03T17:49:15.455Z,43.30
2023-08-03T17:51:44.453Z,43.30
2023-08-03T17:54:13.367Z,43.00
2023-08-03T17:56:44.883Z,42.80
2023-08-03T17:59:14.167Z,42.70
2023-08-03T18:01:43.019Z,42.80
2023-08-03T18:04:12.138Z,42.80
2023-08-03T18:06:42.837Z,42.80
2023-08-03T18:09:12.277Z,43.00
2023-08-03T18:11:41.267Z,43.00
2023-08-03T18:14:10.336Z,43.00
2023-08-03T18:16:39.326Z,43.10
2023-08-03T18:19:12.037Z,43.00
2023-08-03T18:21:42.678Z,43.10
2023-08-03T18:24:11.766Z,43.00
2023-08-03T18:26:40.715Z,43.00
2023-08-03T18:29:09.698Z,43.00
2023-08-03T18:31:57.048Z,43.20
2023-08-03T18:34:26.069Z,43.50
2023-08-03T18:37:15.217Z,43.60
2023-08-03T18:39:44.442Z,44.00
2023-08-03T18:42:13.478Z,44.10
2023-08-03T18:44:42.409Z,44.20
2023-08-03T18:47:17.925Z,44.60
2023-08-03T18:49:46.975Z,44.80
2023-08-03T18:52:17.315Z,45.20
2023-08-03T18:54:46.295Z,45.50
2023-08-03T18:57:15.393Z,45.80
2023-08-03T18:59:44.426Z,46.60
2023-08-03T19:02:13.460Z,46.00
2023-08-03T19:04:42.414Z,46.40
2023-08-03T19:07:19.633Z,46.70
2023-08-03T19:09:48.656Z,47.30
2023-08-03T19:12:17.581Z,47.10
2023-08-03T19:14:46.485Z,47.40
2023-08-03T19:17:15.390Z,47.60
2023-08-03T19:19:44.432Z,47.70
2023-08-03T19:22:13.416Z,47.90
2023-08-03T19:24:43.727Z,48.20
2023-08-03T19:27:12.717Z,48.30
2023-08-03T19:29:41.591Z,48.40
2023-08-03T19:32:10.838Z,48.70
2023-08-03T19:34:39.914Z,48.70
2023-08-03T19:37:08.898Z,48.90
2023-08-03T19:39:37.888Z,49.00
2023-08-03T19:42:08.622Z,49.20
2023-08-03T19:44:37.829Z,49.20
2023-08-03T19:47:07.327Z,49.40
2023-08-03T19:58:14.768Z,49.80
2023-08-03T20:07:45.788Z,50.00
2023-08-03T20:10:15.085Z,49.90
2023-08-03T20:12:45.590Z,50.10
2023-08-03T20:15:15.355Z,50.10
2023-08-03T20:17:44.553Z,50.30
2023-08-03T20:20:14.105Z,50.40
2023-08-03T20:25:12.135Z,50.50
2023-08-03T20:27:42.284Z,50.60
2023-08-03T20:30:13.362Z,50.60
2023-08-03T20:32:42.432Z,50.70
2023-08-03T20:35:11.619Z,50.80
2023-08-03T20:37:42.712Z,50.90
2023-08-03T20:40:12.561Z,51.00
2023-08-03T20:42:42.820Z,51.40
2023-08-03T20:53:10.489Z,51.60
2023-08-03T20:55:39.550Z,51.70
2023-08-03T20:58:09.897Z,51.80
2023-08-03T21:00:41.747Z,51.80
2023-08-03T21:03:10.784Z,52.10
2023-08-03T21:05:44.776Z,52.20
2023-08-03T21:08:25.993Z,52.60
2023-08-03T21:10:56.258Z,53.00
2023-08-03T21:13:25.274Z,53.10
2023-08-03T21:15:55.647Z,53.60
2023-08-03T21:20:56.693Z,54.00
2023-08-03T21:23:25.572Z,54.30
2023-08-03T21:25:54.483Z,54.50
2023-08-03T21:28:23.685Z,54.70
2023-08-03T21:30:52.648Z,54.80
2023-08-03T21:33:23.031Z,55.00
2023-08-03T21:35:52.073Z,55.20
2023-08-03T21:38:21.014Z,55.20
2023-08-03T21:40:50.497Z,55.30
2023-08-03T21:43:20.620Z,55.40
2023-08-03T21:45:49.933Z,55.80
2023-08-03T21:48:19.183Z,55.80
2023-08-03T21:50:49.852Z,56.00
2023-08-03T21:53:18.924Z,56.20
2023-08-03T21:55:47.855Z,56.40
2023-08-03T21:58:16.730Z,56.80
2023-08-03T22:00:45.775Z,56.90
2023-08-03T22:03:14.784Z,56.90
2023-08-03T22:05:43.901Z,56.90
2023-08-03T22:08:14.506Z,56.90
2023-08-03T22:10:43.674Z,56.80
2023-08-03T22:13:12.712Z,57.00
2023-08-03T22:15:45.628Z,57.20
2023-08-03T22:18:14.972Z,57.30
2023-08-03T22:20:44.551Z,57.60
2023-08-03T22:23:14.982Z,57.80
2023-08-03T22:25:44.037Z,57.30
2023-08-03T22:28:13.035Z,56.90
2023-08-03T22:30:42.463Z,56.50
2023-08-03T22:33:11.577Z,55.90
2023-08-03T22:35:40.507Z,55.30
2023-08-03T22:38:09.801Z,54.80
2023-08-03T22:40:41.941Z,54.30
2023-08-03T22:43:11.241Z,53.90
2023-08-03T22:45:42.414Z,53.60
2023-08-03T22:48:12.545Z,53.40
2023-08-03T22:50:42.075Z,53.20
2023-08-03T22:53:11.133Z,53.10
2023-08-03T22:55:41.611Z,53.10
2023-08-03T22:58:10.646Z,53.70
2023-08-03T23:00:39.756Z,54.00
2023-08-03T23:03:08.888Z,54.10
2023-08-03T23:05:38.119Z,54.30
2023-08-03T23:08:07.171Z,55.00
2023-08-03T23:10:36.140Z,55.30
2023-08-03T23:13:06.513Z,55.80
2023-08-03T23:15:39.088Z,56.20
2023-08-03T23:18:08.351Z,56.50
2023-08-03T23:20:37.656Z,56.40
2023-08-03T23:23:07.713Z,56.40
2023-08-03T23:25:36.806Z,56.70
2023-08-03T23:28:07.257Z,56.90
2023-08-03T23:30:36.295Z,57.10
2023-08-03T23:33:05.434Z,57.30
2023-08-03T23:35:34.421Z,57.50
2023-08-03T23:38:03.330Z,57.60
2023-08-03T23:40:32.486Z,57.90
2023-08-03T23:43:01.425Z,58.10
2023-08-03T23:45:32.932Z,58.40
2023-08-03T23:48:02.001Z,58.50
2023-08-03T23:50:30.923Z,58.70
2023-08-03T23:52:59.894Z,58.80
2023-08-03T23:55:28.995Z,58.90
2023-08-03T23:57:58.087Z,59.00
